Time;durP1;ratioP1;P1;durP2;ratioP2;P2;SDS_P1;SDS_P2;PMS_P1;PMS_P2;Temp;Humidity;BMP_temperature;BMP_pressure;BME280_temperature;BME280_humidity;BME280_pressure;Samples;Min_cycle;Max_cycle;Signal;HPM_P1;HPM_P2
2023/03/18 00:00:10;;;;;;;;;;;;;;;15.59;100.00;98323.66;5031630;28;19913;-79
2023/03/18 00:02:35;;;;;;;;;;;;;;;15.61;100.00;98321.81;5017337;28;19902;-79
2023/03/18 00:05:01;;;;;;;;;;;;;;;15.77;100.00;98322.53;5017712;28;19932;-78
2023/03/18 00:07:27;;;;;;;;;;;;;;;15.63;100.00;98330.34;5005702;28;20522;-78
2023/03/18 00:09:52;;;;;;;;;;;;;;;15.79;100.00;98320.66;5018766;28;20020;-78
2023/03/18 00:12:17;;;;;;;;;;;;;;;16.04;100.00;98319.09;5015010;28;19914;-77
2023/03/18 00:14:42;;;;;;;;;;;;;;;16.57;100.00;98293.88;5020188;28;19913;-78
2023/03/18 00:17:08;;;;;;;;;;;;;;;16.63;100.00;98288.28;5017358;28;20047;-78
2023/03/18 00:19:33;;;;;;;;;;;;;;;16.19;100.00;98281.69;5018398;28;20000;-78
2023/03/18 00:21:58;;;;;;;;;;;;;;;15.79;100.00;98292.09;5010887;28;20406;-79
2023/03/18 00:24:24;;;;;;;;;;;;;;;15.52;100.00;98309.41;5012681;28;19921;-77
2023/03/18 00:26:49;;;;;;;;;;;;;;;15.49;100.00;98339.00;5022969;28;19967;-78
2023/03/18 00:29:14;;;;;;;;;;;;;;;14.99;100.00;98361.91;5015787;28;20283;-78
2023/03/18 00:31:40;;;;;;;;;;;;;;;15.34;100.00;98374.50;5016389;28;19917;-79
2023/03/18 00:34:05;;;;;;;;;;;;;;;15.04;100.00;98401.38;5010730;28;19940;-79
2023/03/18 00:36:31;;;;;;;;;;;;;;;15.44;100.00;98411.94;4997132;28;19918;-77
2023/03/18 00:38:56;;;;;;;;;;;;;;;15.47;100.00;98408.31;5013594;28;19920;-77
2023/03/18 00:41:25;;;;;;;;;;;;;;;15.81;100.00;98403.66;5009964;28;19917;-78
2023/03/18 00:43:53;;;;;;;;;;;;;;;15.29;100.00;98401.66;5008455;28;19913;-78
2023/03/18 00:46:23;;;;;;;;;;;;;;;15.05;100.00;98403.03;5014770;28;19917;-78
2023/03/18 00:48:48;;;;;;;;;;;;;;;15.41;100.00;98435.44;5014855;28;19924;-80
2023/03/18 00:51:15;;;;;;;;;;;;;;;15.30;100.00;98432.66;4998331;28;20008;-78
2023/03/18 00:53:41;;;;;;;;;;;;;;;14.98;100.00;98427.66;5008013;28;19920;-78
2023/03/18 00:56:07;;;;;;;;;;;;;;;15.00;100.00;98436.19;5017118;28;19920;-77
2023/03/18 00:58:33;;;;;;;;;;;;;;;15.40;100.00;98464.09;5019176;28;20103;-78
2023/03/18 01:00:58;;;;;;;;;;;;;;;14.79;100.00;98484.94;5017198;28;19939;-77
2023/03/18 01:03:25;;;;;;;;;;;;;;;15.25;100.00;98486.59;5020385;28;19919;-78
2023/03/18 01:05:50;;;;;;;;;;;;;;;14.76;100.00;98503.25;5015208;28;19917;-77
2023/03/18 01:08:16;;;;;;;;;;;;;;;14.63;100.00;98510.88;5017079;28;19913;-77
2023/03/18 01:10:41;;;;;;;;;;;;;;;14.28;100.00;98545.66;5020147;28;19921;-79
2023/03/18 01:13:06;;;;;;;;;;;;;;;14.17;100.00;98588.50;5009016;28;19924;-78
2023/03/18 01:15:32;;;;;;;;;;;;;;;14.99;100.00;98644.56;5021344;28;20298;-78
2023/03/18 01:17:57;;;;;;;;;;;;;;;14.47;100.00;98644.78;5012614;28;19913;-79
2023/03/18 01:20:23;;;;;;;;;;;;;;;15.35;100.00;98650.34;5009149;28;20012;-78
2023/03/18 01:22:49;;;;;;;;;;;;;;;14.35;100.00;98642.84;4991773;28;19919;-78
2023/03/18 01:25:15;;;;;;;;;;;;;;;14.79;100.00;98657.78;5017797;28;20000;-80
2023/03/18 01:27:40;;;;;;;;;;;;;;;15.17;100.00;98675.59;5014958;28;19897;-79
2023/03/18 01:30:06;;;;;;;;;;;;;;;15.67;100.00;98632.94;5008843;28;19987;-79
2023/03/18 01:32:31;;;;;;;;;;;;;;;15.73;100.00;98565.06;5015082;28;19914;-78
2023/03/18 01:34:57;;;;;;;;;;;;;;;15.51;100.00;98569.84;5015848;28;19913;-78
2023/03/18 01:37:22;;;;;;;;;;;;;;;16.25;100.00;98546.28;5016442;28;19921;-78
2023/03/18 01:39:47;;;;;;;;;;;;;;;15.01;100.00;98525.19;5008794;28;19913;-78
2023/03/18 01:42:13;;;;;;;;;;;;;;;15.64;100.00;98543.06;5018747;28;20565;-78
2023/03/18 01:44:38;;;;;;;;;;;;;;;15.31;100.00;98537.31;5016327;28;20403;-81
2023/03/18 01:47:04;;;;;;;;;;;;;;;14.92;100.00;98531.75;5017053;28;19967;-78
2023/03/18 01:49:31;;;;;;;;;;;;;;;14.12;100.00;98567.22;5020812;28;20391;-79
2023/03/18 01:51:57;;;;;;;;;;;;;;;14.95;100.00;98624.06;5009783;28;20284;-78
2023/03/18 01:54:23;;;;;;;;;;;;;;;14.68;100.00;98603.94;5015791;28;19917;-79
2023/03/18 01:56:49;;;;;;;;;;;;;;;15.24;100.00;98619.84;5014571;28;20282;-78
2023/03/18 01:59:14;;;;;;;;;;;;;;;15.81;100.00;98591.41;5034342;28;19917;-79
2023/03/18 02:01:46;;;;;;;;;;;;;;;15.36;100.00;98572.41;5009720;28;20423;-78
2023/03/18 02:04:12;;;;;;;;;;;;;;;14.68;100.00;98556.44;5016389;28;20087;-78
2023/03/18 02:06:37;;;;;;;;;;;;;;;14.69;100.00;98576.25;5011061;28;20031;-78
2023/03/18 02:09:03;;;;;;;;;;;;;;;15.52;100.00;98590.53;5019973;28;19948;-78
2023/03/18 02:11:30;;;;;;;;;;;;;;;14.41;100.00;98594.16;5011345;28;19925;-78
2023/03/18 02:13:55;;;;;;;;;;;;;;;14.67;100.00;98614.41;5017068;28;19921;-78
2023/03/18 02:16:24;;;;;;;;;;;;;;;15.18;100.00;98636.56;5018895;28;19917;-76
2023/03/18 02:18:54;;;;;;;;;;;;;;;15.53;100.00;98610.38;5015527;28;19920;-76
2023/03/18 02:21:35;;;;;;;;;;;;;;;15.60;100.00;98590.06;5018332;28;19918;-78
2023/03/18 02:24:30;;;;;;;;;;;;;;;14.55;100.00;98580.47;5025442;28;19913;-78
2023/03/18 02:26:59;;;;;;;;;;;;;;;15.08;100.00;98596.53;5010399;28;19906;-78
2023/03/18 02:29:25;;;;;;;;;;;;;;;15.38;100.00;98601.72;5017597;28;19918;-78
2023/03/18 02:31:50;;;;;;;;;;;;;;;14.57;100.00;98601.94;5013470;28;20438;-77
2023/03/18 02:34:16;;;;;;;;;;;;;;;14.97;100.00;98646.41;5019281;28;20294;-77
2023/03/18 02:36:41;;;;;;;;;;;;;;;15.32;100.00;98664.31;5019984;28;19921;-77
2023/03/18 02:39:07;;;;;;;;;;;;;;;14.48;100.00;98677.53;5020080;28;20361;-78
2023/03/18 02:41:33;;;;;;;;;;;;;;;14.19;100.00;98741.25;5017460;28;19968;-79
2023/03/18 02:43:58;;;;;;;;;;;;;;;15.05;100.00;98802.44;4995023;28;19967;-78
2023/03/18 02:46:31;;;;;;;;;;;;;;;14.44;100.00;98779.69;5019673;28;19918;-78
2023/03/18 02:48:57;;;;;;;;;;;;;;;14.83;100.00;98848.56;5020811;28;20459;-77
2023/03/18 02:51:23;;;;;;;;;;;;;;;14.63;100.00;98827.06;5018457;28;20008;-77
2023/03/18 02:53:49;;;;;;;;;;;;;;;15.46;100.00;98791.56;5003128;28;20020;-78
2023/03/18 02:56:14;;;;;;;;;;;;;;;14.94;100.00;98789.19;5021424;28;20419;-78
2023/03/18 02:58:40;;;;;;;;;;;;;;;15.31;100.00;98810.53;5011383;28;20768;-77
2023/03/18 03:01:06;;;;;;;;;;;;;;;14.93;100.00;98771.13;5019536;28;19918;-77
2023/03/18 03:03:33;;;;;;;;;;;;;;;15.00;100.00;98755.13;5016505;28;19937;-77
2023/03/18 03:05:59;;;;;;;;;;;;;;;14.72;100.00;98773.09;5017881;28;19975;-78
2023/03/18 03:08:25;;;;;;;;;;;;;;;15.03;100.00;98788.69;5009005;28;19917;-79
2023/03/18 03:10:51;;;;;;;;;;;;;;;15.09;100.00;98786.69;5017608;28;20012;-80
2023/03/18 03:13:17;;;;;;;;;;;;;;;15.26;100.00;98786.63;5018249;28;19914;-78
2023/03/18 03:15:42;;;;;;;;;;;;;;;14.36;100.00;98746.38;5017264;28;19929;-78
2023/03/18 03:18:07;;;;;;;;;;;;;;;13.94;100.00;98790.84;5016554;28;19925;-81
2023/03/18 03:20:34;;;;;;;;;;;;;;;14.21;100.00;98846.44;5018542;28;19960;-79
2023/03/18 03:23:03;;;;;;;;;;;;;;;14.05;100.00;98886.94;5019604;28;19913;-79
2023/03/18 03:25:28;;;;;;;;;;;;;;;14.52;100.00;98930.41;5002121;28;19918;-79
2023/03/18 03:27:54;;;;;;;;;;;;;;;14.50;100.00;98918.44;5016765;28;20040;-76
2023/03/18 03:30:19;;;;;;;;;;;;;;;14.82;100.00;98893.53;5016233;28;19917;-79
2023/03/18 03:32:45;;;;;;;;;;;;;;;14.72;100.00;98910.47;5006968;28;19924;-80
2023/03/18 03:35:14;;;;;;;;;;;;;;;14.90;100.00;98881.00;5018760;28;19921;-79
2023/03/18 03:37:39;;;;;;;;;;;;;;;14.70;100.00;98847.50;5010216;28;19917;-79
2023/03/18 03:40:05;;;;;;;;;;;;;;;14.74;100.00;98854.22;5014990;28;19939;-78
2023/03/18 03:42:30;;;;;;;;;;;;;;;14.76;100.00;98823.88;5015565;28;19924;-78
2023/03/18 03:44:55;;;;;;;;;;;;;;;15.40;100.00;98794.47;5015376;28;19917;-80
2023/03/18 03:47:20;;;;;;;;;;;;;;;14.60;100.00;98784.94;5006456;28;20012;-79
2023/03/18 03:49:46;;;;;;;;;;;;;;;14.86;100.00;98806.91;5017651;28;19959;-79
2023/03/18 03:52:11;;;;;;;;;;;;;;;15.53;100.00;98818.00;5007395;28;19944;-80
2023/03/18 03:54:37;;;;;;;;;;;;;;;15.09;100.00;98779.72;5013710;28;20006;-78
2023/03/18 03:57:03;;;;;;;;;;;;;;;15.03;100.00;98782.69;5011935;28;20473;-79
2023/03/18 03:59:28;;;;;;;;;;;;;;;14.85;100.00;98763.75;5016913;28;19917;-78
2023/03/18 04:01:53;;;;;;;;;;;;;;;15.29;100.00;98768.28;5012562;28;19924;-80
2023/03/18 04:04:18;;;;;;;;;;;;;;;15.40;100.00;98739.97;5031995;28;19920;-79
2023/03/18 04:06:44;;;;;;;;;;;;;;;15.48;100.00;98701.44;5015264;28;19918;-79
2023/03/18 04:09:09;;;;;;;;;;;;;;;16.02;100.00;98667.22;5007090;28;19924;-79
2023/03/18 04:11:35;;;;;;;;;;;;;;;15.52;100.00;98613.06;5018743;28;19917;-80
2023/03/18 04:14:00;;;;;;;;;;;;;;;15.67;100.00;98623.38;5015725;28;20388;-78
2023/03/18 04:16:26;;;;;;;;;;;;;;;15.24;100.00;98627.63;5005435;28;20008;-80
2023/03/18 04:18:51;;;;;;;;;;;;;;;14.75;100.00;98635.53;5007254;28;19921;-79
2023/03/18 04:21:16;;;;;;;;;;;;;;;15.03;100.00;98690.16;5013976;28;20454;-78
2023/03/18 04:23:42;;;;;;;;;;;;;;;15.39;100.00;98707.16;5014436;28;19921;-79
2023/03/18 04:26:08;;;;;;;;;;;;;;;15.01;100.00;98692.00;5016727;28;19947;-79
2023/03/18 04:28:34;;;;;;;;;;;;;;;14.88;100.00;98703.94;5015897;28;19917;-80
2023/03/18 04:30:59;;;;;;;;;;;;;;;14.85;100.00;98724.88;5014977;28;20560;-80
2023/03/18 04:33:24;;;;;;;;;;;;;;;14.43;100.00;98745.13;5013008;28;20695;-78
2023/03/18 04:35:49;;;;;;;;;;;;;;;14.14;100.00;98793.28;5015054;28;19921;-80
2023/03/18 04:38:14;;;;;;;;;;;;;;;14.86;100.00;98838.00;4997761;28;19997;-79
2023/03/18 04:40:41;;;;;;;;;;;;;;;14.50;100.00;98810.44;5012965;28;19921;-80
2023/03/18 04:43:08;;;;;;;;;;;;;;;14.37;100.00;98817.19;5013057;28;20451;-78
2023/03/18 04:45:34;;;;;;;;;;;;;;;14.40;100.00;98854.13;5015270;28;20335;-79
2023/03/18 04:47:59;;;;;;;;;;;;;;;14.08;100.00;98853.13;5006472;28;19917;-78
2023/03/18 04:50:25;;;;;;;;;;;;;;;14.51;100.00;98887.28;5012356;28;19921;-80
2023/03/18 04:52:50;;;;;;;;;;;;;;;14.35;100.00;98888.97;4998238;28;19927;-80
2023/03/18 04:55:16;;;;;;;;;;;;;;;15.01;100.00;98889.06;5013770;28;20065;-79
2023/03/18 04:57:42;;;;;;;;;;;;;;;14.61;100.00;98838.44;5005578;28;19920;-79
2023/03/18 05:00:10;;;;;;;;;;;;;;;14.25;100.00;98875.59;5012537;28;20435;-80
2023/03/18 05:02:35;;;;;;;;;;;;;;;14.04;100.00;98893.03;5005361;28;20458;-79
2023/03/18 05:05:00;;;;;;;;;;;;;;;14.00;100.00;98909.59;5012867;28;19932;-78
2023/03/18 05:07:26;;;;;;;;;;;;;;;13.83;100.00;98949.25;5006975;28;20007;-79
2023/03/18 05:09:51;;;;;;;;;;;;;;;13.97;100.00;98995.19;5013986;28;19949;-78
2023/03/18 05:12:17;;;;;;;;;;;;;;;14.40;100.00;99016.50;4988296;28;20044;-79
2023/03/18 05:14:42;;;;;;;;;;;;;;;14.01;100.00;98999.34;5014623;28;19925;-80
2023/03/18 05:17:14;;;;;;;;;;;;;;;14.18;100.00;98999.38;5004492;28;19921;-79
2023/03/18 05:19:39;;;;;;;;;;;;;;;14.54;100.00;99021.91;5016905;28;19933;-79
2023/03/18 05:22:05;;;;;;;;;;;;;;;15.53;100.00;98983.25;5016381;28;19956;-78
2023/03/18 05:24:30;;;;;;;;;;;;;;;15.09;100.00;98867.91;5012704;28;20414;-78
2023/03/18 05:26:56;;;;;;;;;;;;;;;14.74;100.00;98864.56;5014018;28;19920;-79
2023/03/18 05:29:22;;;;;;;;;;;;;;;14.73;100.00;98862.88;5013983;28;19913;-80
2023/03/18 05:31:47;;;;;;;;;;;;;;;15.39;100.00;98830.88;5013088;28;19921;-79
2023/03/18 05:34:13;;;;;;;;;;;;;;;15.17;100.00;98756.00;5004756;28;20020;-77
2023/03/18 05:36:38;;;;;;;;;;;;;;;14.54;100.00;98752.41;5016363;28;19953;-78
2023/03/18 05:39:03;;;;;;;;;;;;;;;14.31;100.00;98789.81;5016060;28;19917;-79
2023/03/18 05:41:29;;;;;;;;;;;;;;;14.88;100.00;98830.16;5012701;28;19917;-78
2023/03/18 05:43:55;;;;;;;;;;;;;;;14.56;100.00;98801.56;5016572;28;19914;-78
2023/03/18 05:46:20;;;;;;;;;;;;;;;14.81;100.00;98808.91;5014910;28;19918;-80
2023/03/18 05:48:46;;;;;;;;;;;;;;;14.32;100.00;98821.75;5011064;28;20017;-79
2023/03/18 05:51:12;;;;;;;;;;;;;;;14.33;100.00;98849.34;5006632;28;19917;-79
2023/03/18 05:53:38;;;;;;;;;;;;;;;14.37;100.00;98894.91;5004756;28;19921;-79
2023/03/18 05:56:03;;;;;;;;;;;;;;;14.49;100.00;98902.06;5015356;28;19917;-77
2023/03/18 05:58:30;;;;;;;;;;;;;;;14.52;100.00;98933.00;5015095;28;19920;-79
2023/03/18 06:00:55;;;;;;;;;;;;;;;14.31;100.00;98916.75;5014094;28;19941;-78
2023/03/18 06:03:21;;;;;;;;;;;;;;;14.31;100.00;98950.44;5012804;28;19964;-80
2023/03/18 06:05:46;;;;;;;;;;;;;;;14.30;100.00;98937.53;5015203;28;19921;-78
2023/03/18 06:08:11;;;;;;;;;;;;;;;14.47;100.00;98934.97;5017463;28;20901;-78
2023/03/18 06:10:37;;;;;;;;;;;;;;;14.58;100.00;98969.00;5008084;28;19975;-77
2023/03/18 06:13:03;;;;;;;;;;;;;;;14.60;100.00;98946.47;5006904;28;19924;-79
2023/03/18 06:15:29;;;;;;;;;;;;;;;13.95;100.00;98902.06;5033838;28;20363;-78
2023/03/18 06:17:55;;;;;;;;;;;;;;;14.75;100.00;98907.72;5003327;28;20397;-77
2023/03/18 06:20:20;;;;;;;;;;;;;;;14.40;100.00;98853.28;5022084;28;19913;-77
2023/03/18 06:22:48;;;;;;;;;;;;;;;14.52;100.00;98898.47;5021174;28;19917;-78
2023/03/18 06:25:14;;;;;;;;;;;;;;;14.45;100.00;98918.66;4997287;28;19922;-76
2023/03/18 06:27:39;;;;;;;;;;;;;;;14.32;100.00;98940.91;5020411;28;19924;-76
2023/03/18 06:30:05;;;;;;;;;;;;;;;14.41;100.00;98961.19;5011862;28;20294;-80
2023/03/18 06:32:31;;;;;;;;;;;;;;;14.52;100.00;98964.09;5011203;28;19925;-78
2023/03/18 06:34:56;;;;;;;;;;;;;;;15.02;100.00;98952.16;5018747;28;19918;-78
2023/03/18 06:37:22;;;;;;;;;;;;;;;14.82;100.00;98930.69;5019678;28;20521;-78
2023/03/18 06:39:48;;;;;;;;;;;;;;;14.78;100.00;98933.47;5018234;28;19914;-81
2023/03/18 06:42:13;;;;;;;;;;;;;;;15.05;100.00;98907.91;5022038;28;19913;-81
2023/03/18 06:44:41;;;;;;;;;;;;;;;15.20;100.00;98908.88;5019217;28;20034;-76
2023/03/18 06:47:07;;;;;;;;;;;;;;;15.33;100.00;98886.56;5020878;28;19921;-76
2023/03/18 06:49:32;;;;;;;;;;;;;;;15.19;100.00;98878.63;5038007;28;19916;-76
2023/03/18 06:51:58;;;;;;;;;;;;;;;15.91;100.00;98859.19;5021232;28;20906;-76
2023/03/18 06:54:24;;;;;;;;;;;;;;;15.33;100.00;98800.09;5020070;28;20913;-76
2023/03/18 06:56:49;;;;;;;;;;;;;;;15.46;100.00;98812.31;5021049;28;19921;-76
2023/03/18 06:59:14;;;;;;;;;;;;;;;15.59;100.00;98785.66;5021039;28;20480;-76
2023/03/18 07:01:40;;;;;;;;;;;;;;;16.05;100.00;98772.69;5021345;28;20349;-76
2023/03/18 07:04:05;;;;;;;;;;;;;;;15.69;100.00;98773.81;5022486;28;20081;-75
2023/03/18 07:06:31;;;;;;;;;;;;;;;15.47;100.00;98769.03;5036360;28;19932;-75
2023/03/18 07:08:56;;;;;;;;;;;;;;;15.78;100.00;98780.28;5021348;28;20352;-76
2023/03/18 07:11:21;;;;;;;;;;;;;;;15.93;100.00;98758.66;5020667;28;20093;-76
2023/03/18 07:13:47;;;;;;;;;;;;;;;15.84;100.00;98770.41;5021411;28;19924;-75
2023/03/18 07:16:14;;;;;;;;;;;;;;;15.92;100.00;98740.53;5017927;28;20226;-76
2023/03/18 07:18:39;;;;;;;;;;;;;;;16.11;100.00;98733.38;5020610;28;19925;-76
2023/03/18 07:21:05;;;;;;;;;;;;;;;15.38;100.00;98720.25;5020795;28;19971;-76
2023/03/18 07:23:31;;;;;;;;;;;;;;;16.08;100.00;98736.16;5036724;28;20392;-76
2023/03/18 07:25:56;;;;;;;;;;;;;;;16.45;100.00;98703.59;5020482;28;19932;-76
2023/03/18 07:28:21;;;;;;;;;;;;;;;16.42;100.00;98679.53;5020402;28;19921;-75
2023/03/18 07:30:46;;;;;;;;;;;;;;;15.53;100.00;98677.84;5021054;28;20437;-79
2023/03/18 07:33:12;;;;;;;;;;;;;;;15.60;100.00;98707.72;5005384;28;19925;-76
2023/03/18 07:35:39;;;;;;;;;;;;;;;16.35;100.00;98705.06;5021034;28;19913;-76
2023/03/18 07:38:05;;;;;;;;;;;;;;;16.10;100.00;98716.09;5020712;28;20004;-76
2023/03/18 07:40:31;;;;;;;;;;;;;;;16.09;100.00;98727.44;5019795;28;20358;-75
2023/03/18 07:42:56;;;;;;;;;;;;;;;15.58;100.00;98726.91;5021090;28;19940;-75
2023/03/18 07:45:21;;;;;;;;;;;;;;;16.30;100.00;98736.53;5020472;28;20299;-76
2023/03/18 07:47:47;;;;;;;;;;;;;;;15.62;100.00;98728.38;5022362;28;20372;-76
2023/03/18 07:50:12;;;;;;;;;;;;;;;16.16;100.00;98718.34;5020498;28;19924;-77
2023/03/18 07:52:37;;;;;;;;;;;;;;;15.91;100.00;98733.69;5020098;28;20573;-77
2023/03/18 07:55:03;;;;;;;;;;;;;;;16.49;100.00;98699.88;5005638;28;19917;-76
2023/03/18 07:57:28;;;;;;;;;;;;;;;16.24;100.00;98664.16;5021678;28;20626;-76
2023/03/18 07:59:54;;;;;;;;;;;;;;;16.02;100.00;98689.75;5019329;28;19917;-77
2023/03/18 08:02:20;;;;;;;;;;;;;;;16.37;100.00;98679.00;5019429;28;19933;-76
2023/03/18 08:04:46;;;;;;;;;;;;;;;16.05;100.00;98653.19;5018937;28;20040;-76
2023/03/18 08:07:11;;;;;;;;;;;;;;;16.41;100.00;98709.06;5020608;28;19928;-76
2023/03/18 08:09:37;;;;;;;;;;;;;;;16.90;100.00;98661.84;5019799;28;20328;-77
2023/03/18 08:12:02;;;;;;;;;;;;;;;16.57;100.00;98650.00;5004733;28;19951;-77
2023/03/18 08:14:27;;;;;;;;;;;;;;;17.02;100.00;98624.66;5016278;28;19933;-76
2023/03/18 08:16:53;;;;;;;;;;;;;;;16.92;100.00;98623.56;5019310;28;19917;-76
2023/03/18 08:19:18;;;;;;;;;;;;;;;16.69;100.00;98618.06;5019011;28;19948;-76
2023/03/18 08:21:43;;;;;;;;;;;;;;;16.36;100.00;98610.59;5021548;28;19928;-76
2023/03/18 08:24:09;;;;;;;;;;;;;;;16.59;100.00;98658.56;5019260;28;19925;-77
2023/03/18 08:26:35;;;;;;;;;;;;;;;16.81;100.00;98654.63;5021308;28;20000;-76
2023/03/18 08:29:00;;;;;;;;;;;;;;;16.22;100.00;98641.81;5002198;28;19952;-77
2023/03/18 08:31:25;;;;;;;;;;;;;;;16.47;100.00;98674.91;5018890;28;19917;-76
2023/03/18 08:33:53;;;;;;;;;;;;;;;16.74;100.00;98667.19;5016587;28;19921;-76
2023/03/18 08:36:18;;;;;;;;;;;;;;;17.30;100.00;98651.50;5017394;28;19988;-76
2023/03/18 08:38:44;;;;;;;;;;;;;;;17.17;100.00;98622.00;5017700;28;19917;-76
2023/03/18 08:41:09;;;;;;;;;;;;;;;17.19;100.00;98625.34;5021046;28;19939;-76
2023/03/18 08:43:34;;;;;;;;;;;;;;;17.38;100.00;98597.19;5017414;28;20007;-75
2023/03/18 08:45:59;;;;;;;;;;;;;;;17.25;100.00;98602.34;5020050;28;19980;-76
2023/03/18 08:48:25;;;;;;;;;;;;;;;17.30;100.00;98612.47;5016553;28;19921;-76
2023/03/18 08:50:50;;;;;;;;;;;;;;;16.54;100.00;98608.63;5019525;28;19921;-76
2023/03/18 08:53:15;;;;;;;;;;;;;;;16.92;100.00;98629.63;5001998;28;19983;-76
2023/03/18 08:55:41;;;;;;;;;;;;;;;16.93;100.00;98627.84;5003313;28;19921;-75
2023/03/18 08:58:06;;;;;;;;;;;;;;;17.53;100.00;98623.94;5019825;28;19924;-75
2023/03/18 09:00:32;;;;;;;;;;;;;;;17.02;100.00;98608.22;5019580;28;19982;-75
2023/03/18 09:02:57;;;;;;;;;;;;;;;17.80;100.00;98600.44;5018446;28;19917;-75
2023/03/18 09:10:54;;;;;;;;;;;;;;;18.53;100.00;98531.09;5035336;28;19925;-38
2023/03/18 09:13:20;;;;;;;;;;;;;;;19.15;100.00;98496.94;5037367;28;19927;-38
2023/03/18 09:15:45;;;;;;;;;;;;;;;18.07;100.00;98513.53;5037658;28;19931;-39
2023/03/18 09:18:12;;;;;;;;;;;;;;;18.62;100.00;98509.56;5038190;28;19917;-39
2023/03/18 09:20:38;;;;;;;;;;;;;;;18.34;100.00;98516.75;5038088;28;20383;-39
2023/03/18 09:23:03;;;;;;;;;;;;;;;18.18;100.00;98505.78;5036780;28;19916;-39
2023/03/18 09:25:28;;;;;;;;;;;;;;;19.07;100.00;98494.09;5036980;28;19948;-39
2023/03/18 09:27:53;;;;;;;;;;;;;;;19.05;100.00;98467.28;5038185;28;19963;-39
2023/03/18 09:30:19;;;;;;;;;;;;;;;18.93;100.00;98442.09;5037490;28;20070;-39
2023/03/18 09:32:44;;;;;;;;;;;;;;;19.51;100.00;98428.97;5037326;28;19927;-39
2023/03/18 09:35:10;;;;;;;;;;;;;;;19.00;100.00;98432.88;5038236;28;19959;-39
2023/03/18 09:37:35;;;;;;;;;;;;;;;20.26;100.00;98405.56;5038276;28;19921;-39
2023/03/18 09:40:01;;;;;;;;;;;;;;;20.25;100.00;98371.69;5035687;28;19928;-39
2023/03/18 09:42:36;;;;;;;;;;;;;;;20.65;100.00;98350.09;5033948;28;20376;-39
2023/03/18 09:45:02;;;;;;;;;;;;;;;19.63;100.00;98371.38;5036581;28;19916;-39
2023/03/18 09:47:37;;;;;;;;;;;;;;;20.80;100.00;98361.06;5031250;28;19946;-39
2023/03/18 09:50:05;;;;;;;;;;;;;;;20.86;100.00;98350.91;5034725;28;19936;-40
2023/03/18 09:52:31;;;;;;;;;;;;;;;21.21;100.00;98346.22;5033799;28;20605;-40
2023/03/18 09:55:16;;;;;;;;;;;;;;;20.38;100.00;98367.09;5035401;28;19917;-39
2023/03/18 09:57:43;;;;;;;;;;;;;;;21.62;100.00;98340.06;5035210;28;20747;-40
2023/03/18 10:00:19;;;;;;;;;;;;;;;22.36;100.00;98301.16;5034823;28;19921;-40
2023/03/18 10:03:00;;;;;;;;;;;;;;;21.30;100.00;98327.94;5035072;28;20033;-40
2023/03/18 10:05:31;;;;;;;;;;;;;;;22.20;100.00;98325.31;5035413;28;19921;-40
2023/03/18 10:07:57;;;;;;;;;;;;;;;22.23;100.00;98330.28;5033111;28;19967;-40
2023/03/18 10:10:29;;;;;;;;;;;;;;;21.29;100.00;98362.13;5035783;28;19925;-40
2023/03/18 10:12:58;;;;;;;;;;;;;;;20.57;100.00;98399.63;5035157;28;19917;-40
2023/03/18 10:15:30;;;;;;;;;;;;;;;20.17;100.00;98402.88;5036631;28;19917;-40
2023/03/18 10:17:59;;;;;;;;;;;;;;;21.36;100.00;98383.38;5037213;28;19921;-40
2023/03/18 10:20:24;;;;;;;;;;;;;;;20.60;100.00;98384.50;5035595;28;20018;-40
2023/03/18 10:23:01;;;;;;;;;;;;;;;20.79;100.00;98370.69;5036703;28;19948;-40
2023/03/18 10:25:34;;;;;;;;;;;;;;;21.03;100.00;98364.38;5035903;28;20015;-40
2023/03/18 10:28:08;;;;;;;;;;;;;;;20.95;100.00;98375.47;5037727;28;19932;-40
2023/03/18 10:30:46;;;;;;;;;;;;;;;20.73;100.00;98384.28;5036998;28;19924;-40
2023/03/18 10:33:14;;;;;;;;;;;;;;;19.80;100.00;98418.88;5036436;28;19920;-40
2023/03/18 10:35:42;;;;;;;;;;;;;;;21.50;100.00;98375.16;5036155;28;19920;-40
2023/03/18 10:38:19;;;;;;;;;;;;;;;20.48;100.00;98365.41;5035651;28;19921;-40
2023/03/18 10:40:45;;;;;;;;;;;;;;;21.06;100.00;98366.72;5036531;28;19920;-40
2023/03/18 10:43:15;;;;;;;;;;;;;;;22.12;100.00;98339.09;5035310;28;19939;-40
2023/03/18 10:45:41;;;;;;;;;;;;;;;20.27;100.00;98385.47;5036540;28;20467;-40
2023/03/18 10:48:10;;;;;;;;;;;;;;;21.89;100.00;98344.59;5034591;28;19917;-40
2023/03/18 10:50:41;;;;;;;;;;;;;;;21.71;100.00;98341.84;5034733;28;19928;-40
2023/03/18 10:53:07;;;;;;;;;;;;;;;21.61;100.00;98335.75;5039334;28;19917;-40
2023/03/18 10:55:35;;;;;;;;;;;;;;;21.36;100.00;98357.19;5040364;28;19920;-40
2023/03/18 10:58:01;;;;;;;;;;;;;;;21.86;100.00;98339.66;5039066;28;20411;-40
2023/03/18 11:00:27;;;;;;;;;;;;;;;22.25;100.00;98341.47;5037811;28;19917;-40
2023/03/18 11:02:52;;;;;;;;;;;;;;;23.35;100.00;98302.31;5039180;28;19920;-40
2023/03/18 11:05:17;;;;;;;;;;;;;;;22.75;100.00;98312.38;5039132;28;19964;-40
2023/03/18 11:07:56;;;;;;;;;;;;;;;23.30;100.00;98301.94;5039606;28;19917;-40
2023/03/18 11:10:27;;;;;;;;;;;;;;;23.48;100.00;98290.63;5039632;28;19924;-40
2023/03/18 11:13:01;;;;;;;;;;;;;;;22.94;100.00;98309.69;5037399;28;19921;-40
2023/03/18 11:15:26;;;;;;;;;;;;;;;23.91;99.75;98284.66;5038217;28;19916;-40
2023/03/18 11:17:51;;;;;;;;;;;;;;;22.45;100.00;98324.75;5040896;28;19931;-40
2023/03/18 11:20:43;;;;;;;;;;;;;;;23.88;99.31;98276.25;5040107;28;19916;-40
2023/03/18 11:23:16;;;;;;;;;;;;;;;22.93;100.00;98320.34;5037149;28;19928;-40
2023/03/18 11:25:44;;;;;;;;;;;;;;;23.52;100.00;98290.19;5039577;28;19929;-40
2023/03/18 11:28:17;;;;;;;;;;;;;;;23.37;100.00;98310.88;5040555;28;20773;-40
2023/03/18 11:30:43;;;;;;;;;;;;;;;22.88;99.28;98293.69;5037946;28;19967;-40
2023/03/18 11:33:11;;;;;;;;;;;;;;;23.96;100.00;98290.28;5039117;28;19925;-40
2023/03/18 11:35:42;;;;;;;;;;;;;;;21.81;100.00;98330.56;5039108;28;19920;-40
2023/03/18 11:38:14;;;;;;;;;;;;;;;22.59;99.87;98280.66;5040104;28;20384;-40
2023/03/18 11:40:39;;;;;;;;;;;;;;;23.53;97.67;98273.44;5039349;28;20424;-40
2023/03/18 11:43:14;;;;;;;;;;;;;;;24.14;95.35;98256.06;5039693;28;19917;-40
2023/03/18 11:45:42;;;;;;;;;;;;;;;24.54;95.40;98261.78;5037860;28;20047;-41
2023/03/18 11:48:10;;;;;;;;;;;;;;;24.36;94.97;98261.81;5038331;28;19923;-40
2023/03/18 11:50:40;;;;;;;;;;;;;;;24.00;94.33;98269.78;5039948;28;19917;-40
2023/03/18 11:53:09;;;;;;;;;;;;;;;23.04;94.66;98288.66;5036416;28;19916;-40
2023/03/18 11:55:34;;;;;;;;;;;;;;;24.15;94.12;98268.25;5036763;28;21601;-40
2023/03/18 11:58:09;;;;;;;;;;;;;;;25.05;92.16;98239.78;5037604;28;19920;-40
2023/03/18 12:00:45;;;;;;;;;;;;;;;23.57;92.00;98260.81;5037706;28;19917;-40
2023/03/18 12:03:10;;;;;;;;;;;;;;;24.78;92.40;98248.75;5038061;28;19950;-40
2023/03/18 12:05:39;;;;;;;;;;;;;;;25.21;87.29;98220.59;5038482;28;19921;-40
2023/03/18 12:08:04;;;;;;;;;;;;;;;24.33;91.68;98260.31;5038934;28;20034;-40
2023/03/18 12:10:37;;;;;;;;;;;;;;;25.12;91.42;98241.78;5039103;28;20556;-40
2023/03/18 12:13:05;;;;;;;;;;;;;;;26.20;88.59;98218.81;5037109;28;19922;-41
2023/03/18 12:15:37;;;;;;;;;;;;;;;25.65;86.02;98207.13;5037916;28;20482;-40
2023/03/18 12:18:11;;;;;;;;;;;;;;;25.05;92.50;98246.88;5037558;28;19917;-40
2023/03/18 12:20:39;;;;;;;;;;;;;;;24.33;91.52;98241.88;5038360;28;19972;-40
2023/03/18 12:23:23;;;;;;;;;;;;;;;25.54;89.88;98222.44;5038955;28;20004;-40
2023/03/18 12:25:49;;;;;;;;;;;;;;;25.49;88.31;98220.31;5038032;28;19967;-40
2023/03/18 12:28:15;;;;;;;;;;;;;;;25.80;90.64;98227.59;5039606;28;19952;-40
2023/03/18 12:31:09;;;;;;;;;;;;;;;25.49;89.28;98225.56;5038975;28;19913;-40
2023/03/18 12:33:55;;;;;;;;;;;;;;;25.91;88.49;98223.81;5020992;28;20369;-40
2023/03/18 12:36:41;;;;;;;;;;;;;;;24.93;85.07;98214.72;5037536;28;19921;-40
2023/03/18 12:39:25;;;;;;;;;;;;;;;25.03;89.95;98239.13;5038462;28;19927;-40
2023/03/18 12:41:50;;;;;;;;;;;;;;;25.90;88.44;98217.72;5038317;28;20543;-40